createdAt,value
2023-01-12T00:00:07.146Z,38.26
2023-01-12T00:05:16.663Z,37.80
2023-01-12T00:10:21.447Z,38.14
2023-01-12T00:15:44.407Z,38.33
2023-01-12T00:20:52.238Z,38.06
2023-01-12T00:25:59.046Z,38.00
2023-01-12T00:31:06.774Z,38.01
2023-01-12T00:36:15.496Z,38.34
2023-01-12T00:41:39.376Z,38.70
2023-01-12T00:46:43.943Z,37.97
2023-01-12T00:51:48.513Z,38.25
2023-01-12T00:56:53.060Z,38.21
2023-01-12T01:01:58.581Z,38.65
2023-01-12T01:07:04.527Z,39.36
2023-01-12T01:12:10.472Z,38.34
2023-01-12T01:17:15.142Z,39.30
2023-01-12T01:22:19.800Z,38.42
2023-01-12T01:27:26.405Z,38.64
2023-01-12T01:32:31.055Z,38.48
2023-01-12T01:37:36.056Z,38.49
2023-01-12T01:42:42.546Z,37.81
2023-01-12T01:47:55.387Z,37.60
2023-01-12T01:53:09.116Z,38.32
2023-01-12T01:58:30.145Z,38.00
2023-01-12T02:03:36.881Z,38.59
2023-01-12T02:08:48.403Z,38.36
2023-01-12T02:14:12.123Z,38.83
2023-01-12T02:19:16.728Z,38.11
2023-01-12T02:24:41.765Z,38.11
2023-01-12T02:30:10.435Z,38.15
2023-01-12T02:35:31.954Z,37.70
2023-01-12T02:41:06.685Z,37.76
2023-01-12T02:46:16.494Z,37.69
2023-01-12T02:51:30.618Z,37.83
2023-01-12T02:56:56.179Z,36.92
2023-01-12T03:02:16.060Z,38.73
2023-01-12T03:07:34.437Z,38.90
2023-01-12T03:12:41.812Z,37.97
2023-01-12T03:17:56.546Z,37.78
2023-01-12T03:23:30.276Z,37.05
2023-01-12T03:28:38.806Z,38.07
2023-01-12T03:33:45.656Z,37.41
2023-01-12T03:39:27.218Z,37.74
2023-01-12T03:44:44.050Z,37.63
2023-01-12T03:50:06.120Z,37.84
2023-01-12T03:55:17.264Z,38.35
2023-01-12T04:00:25.025Z,37.83
2023-01-12T04:05:30.675Z,37.36
2023-01-12T04:10:39.070Z,37.50
2023-01-12T04:15:46.163Z,38.11
2023-01-12T04:20:52.397Z,37.60
2023-01-12T04:25:57.080Z,37.20
2023-01-12T04:31:01.920Z,37.86
2023-01-12T04:36:07.742Z,38.14
2023-01-12T04:41:13.081Z,37.92
2023-01-12T04:46:18.550Z,37.39
2023-01-12T04:51:24.069Z,37.22
2023-01-12T04:56:30.427Z,37.54
2023-01-12T05:01:38.136Z,37.71
2023-01-12T05:06:43.546Z,37.97
2023-01-12T05:11:48.858Z,38.13
2023-01-12T05:16:54.170Z,38.47
2023-01-12T05:22:01.726Z,38.57
2023-01-12T05:27:06.986Z,39.19
2023-01-12T05:32:12.291Z,39.67
2023-01-12T05:37:17.640Z,38.88
2023-01-12T05:42:44.581Z,39.17
2023-01-12T05:48:03.479Z,38.97
2023-01-12T05:53:08.843Z,39.37
2023-01-12T05:58:13.990Z,38.40
2023-01-12T06:03:19.677Z,39.39
2023-01-12T06:08:27.796Z,38.67
2023-01-12T06:13:52.162Z,38.55
2023-01-12T06:18:58.903Z,40.26
2023-01-12T06:24:04.449Z,38.95
2023-01-12T06:29:09.872Z,39.18
2023-01-12T06:34:15.820Z,40.20
2023-01-12T06:39:21.177Z,40.43
2023-01-12T06:44:26.562Z,39.82
2023-01-12T06:49:31.916Z,40.51
2023-01-12T06:54:37.336Z,42.61
2023-01-12T06:59:47.449Z,43.62
2023-01-12T07:04:52.768Z,44.09
2023-01-12T07:09:58.259Z,43.18
2023-01-12T07:15:03.094Z,44.22
2023-01-12T07:20:10.061Z,44.65
2023-01-12T07:25:16.794Z,42.34
2023-01-12T07:30:26.771Z,44.15
2023-01-12T07:35:32.207Z,42.31
2023-01-12T07:40:53.709Z,42.99
2023-01-12T07:46:02.565Z,45.39
2023-01-12T07:51:08.330Z,43.26
2023-01-12T07:56:17.447Z,45.12
2023-01-12T08:01:22.920Z,45.40
2023-01-12T08:06:28.553Z,44.88
2023-01-12T08:11:33.492Z,45.45
2023-01-12T08:16:45.166Z,45.09
2023-01-12T08:21:59.320Z,45.68
2023-01-12T08:27:08.735Z,45.48
2023-01-12T08:32:17.709Z,46.15
2023-01-12T08:37:25.980Z,46.06
2023-01-12T08:42:32.116Z,47.18
2023-01-12T08:47:40.016Z,44.21
2023-01-12T08:52:45.732Z,46.35
2023-01-12T08:57:51.120Z,46.35
2023-01-12T09:02:56.724Z,47.12
2023-01-12T09:08:02.158Z,46.28
2023-01-12T09:13:08.734Z,46.48
2023-01-12T09:18:14.384Z,47.95
2023-01-12T09:23:21.657Z,48.17
2023-01-12T09:28:27.483Z,48.12
2023-01-12T09:33:34.290Z,48.35
2023-01-12T09:38:41.361Z,47.71
2023-01-12T09:44:04.937Z,48.48
2023-01-12T09:49:10.284Z,48.50
2023-01-12T09:54:15.588Z,48.55
2023-01-12T09:59:36.533Z,46.63
2023-01-12T10:04:42.140Z,48.54
2023-01-12T10:09:47.848Z,48.63
2023-01-12T10:15:20.187Z,46.66
2023-01-12T10:20:34.680Z,48.32
2023-01-12T10:25:44.405Z,48.41
2023-01-12T10:30:49.639Z,48.70
2023-01-12T10:36:18.043Z,47.54
2023-01-12T10:41:25.156Z,49.58
2023-01-12T10:46:34.394Z,48.73
2023-01-12T10:51:58.468Z,48.21
2023-01-12T10:57:09.183Z,49.59
2023-01-12T11:02:16.867Z,50.25
2023-01-12T11:07:27.113Z,49.70
2023-01-12T11:12:42.477Z,48.51
2023-01-12T11:18:05.816Z,48.45
2023-01-12T11:23:54.469Z,48.39
2023-01-12T11:29:09.330Z,49.86
2023-01-12T11:34:21.363Z,49.51
2023-01-12T11:39:28.904Z,50.17
2023-01-12T11:44:41.549Z,50.24
2023-01-12T11:50:14.958Z,48.30
2023-01-12T11:55:36.671Z,50.31
2023-01-12T12:01:14.494Z,48.60
2023-01-12T12:06:59.866Z,49.73
2023-01-12T12:12:40.633Z,49.68
2023-01-12T12:18:25.178Z,49.73
2023-01-12T12:23:41.542Z,50.08
2023-01-12T12:29:04.904Z,49.80
2023-01-12T12:34:46.315Z,50.18
2023-01-12T12:39:59.064Z,52.98
2023-01-12T12:45:19.536Z,52.97
2023-01-12T12:50:42.629Z,52.03
2023-01-12T12:55:51.415Z,53.42
2023-01-12T13:00:58.258Z,54.29
2023-01-12T13:06:35.960Z,51.49
2023-01-12T13:11:56.751Z,51.57
2023-01-12T13:17:08.347Z,51.41
2023-01-12T13:22:26.653Z,51.97
2023-01-12T13:27:53.244Z,49.76
2023-01-12T13:33:20.764Z,50.22
2023-01-12T13:38:40.791Z,48.87
2023-01-12T13:43:59.891Z,49.66
2023-01-12T13:49:21.413Z,50.66
2023-01-12T13:54:26.482Z,50.88
2023-01-12T13:59:34.574Z,50.64
2023-01-12T14:04:59.510Z,49.17
2023-01-12T14:10:36.654Z,49.10
2023-01-12T14:16:02.078Z,51.42
2023-01-12T14:21:27.988Z,48.79
2023-01-12T14:26:38.619Z,50.27
2023-01-12T14:31:54.014Z,49.13
2023-01-12T14:36:59.568Z,51.51
2023-01-12T14:42:28.632Z,50.31
2023-01-12T14:47:37.263Z,51.69
2023-01-12T14:52:44.903Z,50.46
2023-01-12T14:57:53.857Z,53.81
2023-01-12T15:03:02.590Z,51.63
2023-01-12T15:08:11.798Z,51.47
2023-01-12T15:13:39.221Z,50.50
2023-01-12T15:19:02.128Z,52.25
2023-01-12T15:24:45.260Z,50.65
2023-01-12T15:29:50.151Z,49.67
2023-01-12T15:34:57.406Z,51.93
2023-01-12T15:40:03.046Z,51.86
2023-01-12T15:45:20.354Z,50.81
2023-01-12T15:50:28.587Z,52.04
2023-01-12T15:55:38.627Z,51.12
2023-01-12T16:00:45.446Z,52.75
2023-01-12T16:05:50.433Z,52.90
2023-01-12T16:11:10.737Z,53.73
2023-01-12T16:16:21.798Z,53.37
2023-01-12T16:21:30.159Z,53.09
2023-01-12T16:26:37.176Z,54.85
2023-01-12T16:31:42.247Z,53.00
2023-01-12T16:36:47.857Z,53.78
2023-01-12T16:41:56.457Z,52.43
2023-01-12T16:47:02.865Z,55.95
2023-01-12T16:52:10.101Z,56.38
2023-01-12T16:57:19.913Z,52.91
2023-01-12T17:02:27.118Z,55.82
2023-01-12T17:07:32.337Z,57.97
2023-01-12T17:12:38.368Z,54.13
2023-01-12T17:17:58.410Z,55.25
2023-01-12T17:23:06.276Z,53.92
2023-01-12T17:28:11.200Z,53.44
2023-01-12T17:33:16.741Z,52.75
2023-01-12T17:38:21.459Z,53.10
2023-01-12T17:43:29.011Z,53.12
2023-01-12T17:48:33.687Z,52.58
2023-01-12T17:53:38.294Z,51.56
2023-01-12T17:58:43.820Z,53.38
2023-01-12T18:03:48.554Z,55.39
2023-01-12T18:08:54.080Z,53.98
2023-01-12T18:13:59.974Z,54.38
2023-01-12T18:19:08.163Z,55.22
2023-01-12T18:24:12.800Z,53.63
2023-01-12T18:29:17.372Z,54.94
2023-01-12T18:34:22.005Z,55.29
2023-01-12T18:39:26.680Z,52.13
2023-01-12T18:44:33.114Z,55.14
2023-01-12T18:49:37.937Z,53.20
2023-01-12T18:55:00.477Z,54.48
2023-01-12T19:00:13.717Z,52.90
2023-01-12T19:05:25.296Z,55.86
2023-01-12T19:10:31.208Z,57.23
2023-01-12T19:15:55.508Z,54.20
2023-01-12T19:21:22.775Z,54.62
2023-01-12T19:26:46.658Z,54.65
2023-01-12T19:31:52.062Z,56.17
2023-01-12T19:36:56.713Z,55.19
2023-01-12T19:42:19.703Z,54.11
2023-01-12T19:47:27.590Z,54.04
2023-01-12T19:52:32.243Z,54.68
2023-01-12T19:57:38.410Z,54.38
2023-01-12T20:02:45.890Z,53.42
2023-01-12T20:08:00.148Z,52.92
2023-01-12T20:13:04.904Z,55.14
2023-01-12T20:18:10.029Z,54.71
2023-01-12T20:23:16.946Z,58.58
2023-01-12T20:28:21.614Z,54.91
2023-01-12T20:33:29.057Z,54.79
2023-01-12T20:38:33.592Z,53.96
2023-01-12T20:43:39.450Z,56.35
2023-01-12T20:48:46.024Z,53.43
2023-01-12T20:53:51.760Z,53.86
2023-01-12T20:58:59.690Z,52.93
2023-01-12T21:04:05.540Z,54.36
2023-01-12T21:09:11.422Z,54.26
2023-01-12T21:14:17.128Z,53.87
2023-01-12T21:19:21.994Z,54.34
2023-01-12T21:24:27.774Z,53.68
2023-01-12T21:29:32.433Z,53.24
2023-01-12T21:34:37.107Z,52.89
2023-01-12T21:39:41.714Z,52.86
2023-01-12T21:44:47.192Z,52.67
2023-01-12T21:49:51.953Z,52.83
2023-01-12T21:54:56.530Z,53.11
2023-01-12T22:00:02.718Z,53.00
2023-01-12T22:05:17.683Z,53.88
2023-01-12T22:10:24.133Z,53.44
2023-01-12T22:15:31.459Z,53.81
2023-01-12T22:20:36.057Z,52.82
2023-01-12T22:25:41.916Z,55.02
2023-01-12T22:30:46.601Z,54.80
2023-01-12T22:35:52.783Z,52.69
2023-01-12T22:40:57.423Z,54.76
2023-01-12T22:46:03.562Z,53.08
2023-01-12T22:51:09.040Z,53.12
2023-01-12T22:56:14.481Z,53.69
2023-01-12T23:01:20.759Z,53.64
2023-01-12T23:06:27.825Z,53.29
2023-01-12T23:11:32.550Z,53.24
2023-01-12T23:16:38.910Z,53.11
2023-01-12T23:21:45.837Z,59.80
2023-01-12T23:26:50.527Z,53.81
2023-01-12T23:31:55.486Z,53.59
2023-01-12T23:37:01.727Z,53.20
2023-01-12T23:42:07.523Z,53.30
2023-01-12T23:47:12.323Z,53.83
2023-01-12T23:52:19.868Z,53.45
2023-01-12T23:57:28.552Z,53.57
